sensor_id;sensor_type;location;lat;lon;timestamp;pressure;altitude;pressure_sealevel;temperature
10598;BMP180;5346;48.766;8.674;2022-08-04T00:01:49;94170.00;;;23.90
10598;BMP180;5346;48.766;8.674;2022-08-04T00:10:17;94167.00;;;24.00
10598;BMP180;5346;48.766;8.674;2022-08-04T00:12:50;94163.00;;;23.90
10598;BMP180;5346;48.766;8.674;2022-08-04T00:15:29;94162.00;;;23.90
10598;BMP180;5346;48.766;8.674;2022-08-04T00:18:06;94160.00;;;24.10
10598;BMP180;5346;48.766;8.674;2022-08-04T00:20:48;94153.00;;;24.20
10598;BMP180;5346;48.766;8.674;2022-08-04T00:23:18;94153.00;;;24.20
10598;BMP180;5346;48.766;8.674;2022-08-04T00:25:45;94153.00;;;24.10
10598;BMP180;5346;48.766;8.674;2022-08-04T00:28:21;94146.00;;;24.20
10598;BMP180;5346;48.766;8.674;2022-08-04T00:30:50;94155.00;;;24.20
10598;BMP180;5346;48.766;8.674;2022-08-04T00:33:20;94154.00;;;24.20
10598;BMP180;5346;48.766;8.674;2022-08-04T00:35:56;94152.00;;;24.30
10598;BMP180;5346;48.766;8.674;2022-08-04T00:38:23;94152.00;;;24.30
10598;BMP180;5346;48.766;8.674;2022-08-04T00:44:02;94155.00;;;24.50
10598;BMP180;5346;48.766;8.674;2022-08-04T00:58:21;94155.00;;;24.40
10598;BMP180;5346;48.766;8.674;2022-08-04T01:01:05;94152.00;;;24.30
10598;BMP180;5346;48.766;8.674;2022-08-04T01:03:50;94153.00;;;24.30
10598;BMP180;5346;48.766;8.674;2022-08-04T01:26:42;94156.00;;;24.00
10598;BMP180;5346;48.766;8.674;2022-08-04T01:29:27;94162.00;;;23.90
10598;BMP180;5346;48.766;8.674;2022-08-04T01:32:30;94161.00;;;23.80
10598;BMP180;5346;48.766;8.674;2022-08-04T01:38:06;94152.00;;;24.00
10598;BMP180;5346;48.766;8.674;2022-08-04T01:40:50;94153.00;;;23.90
10598;BMP180;5346;48.766;8.674;2022-08-04T01:43:20;94148.00;;;23.80
10598;BMP180;5346;48.766;8.674;2022-08-04T01:45:59;94147.00;;;23.70
10598;BMP180;5346;48.766;8.674;2022-08-04T01:48:27;94146.00;;;23.60
10598;BMP180;5346;48.766;8.674;2022-08-04T01:51:07;94138.00;;;23.40
10598;BMP180;5346;48.766;8.674;2022-08-04T01:53:39;94141.00;;;23.30
10598;BMP180;5346;48.766;8.674;2022-08-04T01:56:14;94149.00;;;23.20
10598;BMP180;5346;48.766;8.674;2022-08-04T01:58:42;94148.00;;;23.00
10598;BMP180;5346;48.766;8.674;2022-08-04T02:01:11;94148.00;;;23.20
10598;BMP180;5346;48.766;8.674;2022-08-04T02:03:46;94136.00;;;22.90
10598;BMP180;5346;48.766;8.674;2022-08-04T02:12:55;94142.00;;;22.80
10598;BMP180;5346;48.766;8.674;2022-08-04T02:18:45;94134.00;;;23.00
10598;BMP180;5346;48.766;8.674;2022-08-04T02:21:25;94133.00;;;23.10
10598;BMP180;5346;48.766;8.674;2022-08-04T02:24:13;94133.00;;;23.10
10598;BMP180;5346;48.766;8.674;2022-08-04T02:26:49;94131.00;;;23.20
10598;BMP180;5346;48.766;8.674;2022-08-04T02:29:33;94125.00;;;23.30
10598;BMP180;5346;48.766;8.674;2022-08-04T02:32:18;94130.00;;;23.20
10598;BMP180;5346;48.766;8.674;2022-08-04T02:37:32;94114.00;;;23.30
10598;BMP180;5346;48.766;8.674;2022-08-04T02:40:03;94113.00;;;23.20
10598;BMP180;5346;48.766;8.674;2022-08-04T02:42:38;94114.00;;;23.30
10598;BMP180;5346;48.766;8.674;2022-08-04T02:45:06;94114.00;;;23.30
10598;BMP180;5346;48.766;8.674;2022-08-04T02:47:35;94120.00;;;23.20
10598;BMP180;5346;48.766;8.674;2022-08-04T02:50:33;94111.00;;;23.20
10598;BMP180;5346;48.766;8.674;2022-08-04T02:53:02;94113.00;;;23.20
10598;BMP180;5346;48.766;8.674;2022-08-04T02:55:37;94105.00;;;23.30
10598;BMP180;5346;48.766;8.674;2022-08-04T02:58:19;94111.00;;;23.30
10598;BMP180;5346;48.766;8.674;2022-08-04T03:00:54;94107.00;;;23.30
10598;BMP180;5346;48.766;8.674;2022-08-04T03:03:33;94107.00;;;23.20
10598;BMP180;5346;48.766;8.674;2022-08-04T03:11:55;94105.00;;;23.20
10598;BMP180;5346;48.766;8.674;2022-08-04T03:14:48;94102.00;;;23.30
10598;BMP180;5346;48.766;8.674;2022-08-04T03:20:39;94102.00;;;23.30
10598;BMP180;5346;48.766;8.674;2022-08-04T03:31:56;94110.00;;;23.50
10598;BMP180;5346;48.766;8.674;2022-08-04T03:44:00;94119.00;;;23.00
10598;BMP180;5346;48.766;8.674;2022-08-04T03:53:23;94115.00;;;22.90
10598;BMP180;5346;48.766;8.674;2022-08-04T04:02:02;94115.00;;;22.60
10598;BMP180;5346;48.766;8.674;2022-08-04T04:05:09;94116.00;;;22.40
10598;BMP180;5346;48.766;8.674;2022-08-04T04:16:53;94112.00;;;22.30
10598;BMP180;5346;48.766;8.674;2022-08-04T04:22:29;94105.00;;;22.10
10598;BMP180;5346;48.766;8.674;2022-08-04T04:25:48;94102.00;;;22.00
10598;BMP180;5346;48.766;8.674;2022-08-04T04:28:54;94110.00;;;22.20
10598;BMP180;5346;48.766;8.674;2022-08-04T04:34:52;94113.00;;;22.30
10598;BMP180;5346;48.766;8.674;2022-08-04T04:40:39;94114.00;;;22.40
10598;BMP180;5346;48.766;8.674;2022-08-04T04:43:42;94114.00;;;22.70
10598;BMP180;5346;48.766;8.674;2022-08-04T04:46:33;94114.00;;;22.70
10598;BMP180;5346;48.766;8.674;2022-08-04T04:53:14;94122.00;;;22.80
10598;BMP180;5346;48.766;8.674;2022-08-04T04:55:54;94119.00;;;22.80
10598;BMP180;5346;48.766;8.674;2022-08-04T04:58:32;94115.00;;;22.80
10598;BMP180;5346;48.766;8.674;2022-08-04T05:08:18;94108.00;;;23.60
10598;BMP180;5346;48.766;8.674;2022-08-04T05:14:40;94106.00;;;24.10
10598;BMP180;5346;48.766;8.674;2022-08-04T05:17:27;94106.00;;;24.40
10598;BMP180;5346;48.766;8.674;2022-08-04T05:20:24;94105.00;;;24.70
10598;BMP180;5346;48.766;8.674;2022-08-04T05:23:14;94104.00;;;25.00
10598;BMP180;5346;48.766;8.674;2022-08-04T05:25:56;94111.00;;;25.20
10598;BMP180;5346;48.766;8.674;2022-08-04T05:28:40;94103.00;;;25.50
10598;BMP180;5346;48.766;8.674;2022-08-04T05:31:21;94109.00;;;25.70
10598;BMP180;5346;48.766;8.674;2022-08-04T05:34:10;94109.00;;;25.80
10598;BMP180;5346;48.766;8.674;2022-08-04T05:37:00;94112.00;;;25.90
10598;BMP180;5346;48.766;8.674;2022-08-04T05:39:41;94103.00;;;26.20
10598;BMP180;5346;48.766;8.674;2022-08-04T05:42:16;94108.00;;;26.30
10598;BMP180;5346;48.766;8.674;2022-08-04T05:44:50;94108.00;;;26.30
10598;BMP180;5346;48.766;8.674;2022-08-04T05:47:18;94109.00;;;26.30
10598;BMP180;5346;48.766;8.674;2022-08-04T05:49:49;94107.00;;;26.70
10598;BMP180;5346;48.766;8.674;2022-08-04T05:52:32;94108.00;;;26.70
10598;BMP180;5346;48.766;8.674;2022-08-04T05:55:03;94115.00;;;26.80
10598;BMP180;5346;48.766;8.674;2022-08-04T05:57:44;94115.00;;;26.90
10598;BMP180;5346;48.766;8.674;2022-08-04T06:00:12;94117.00;;;26.90
10598;BMP180;5346;48.766;8.674;2022-08-04T06:03:08;94116.00;;;27.10
10598;BMP180;5346;48.766;8.674;2022-08-04T06:05:36;94119.00;;;27.10
10598;BMP180;5346;48.766;8.674;2022-08-04T06:08:12;94115.00;;;27.20
10598;BMP180;5346;48.766;8.674;2022-08-04T06:10:42;94122.00;;;27.30
10598;BMP180;5346;48.766;8.674;2022-08-04T06:13:12;94122.00;;;27.40
10598;BMP180;5346;48.766;8.674;2022-08-04T06:16:11;94121.00;;;27.40
10598;BMP180;5346;48.766;8.674;2022-08-04T06:19:08;94115.00;;;27.50
10598;BMP180;5346;48.766;8.674;2022-08-04T06:22:08;94114.00;;;27.70
10598;BMP180;5346;48.766;8.674;2022-08-04T06:24:45;94120.00;;;27.80
10598;BMP180;5346;48.766;8.674;2022-08-04T06:27:23;94117.00;;;28.10
10598;BMP180;5346;48.766;8.674;2022-08-04T06:29:55;94118.00;;;28.00
10598;BMP180;5346;48.766;8.674;2022-08-04T06:32:36;94118.00;;;28.10
10598;BMP180;5346;48.766;8.674;2022-08-04T06:35:17;94120.00;;;28.40
10598;BMP180;5346;48.766;8.674;2022-08-04T06:37:56;94118.00;;;28.50
10598;BMP180;5346;48.766;8.674;2022-08-04T06:40:28;94123.00;;;28.70
10598;BMP180;5346;48.766;8.674;2022-08-04T06:43:07;94123.00;;;28.80
10598;BMP180;5346;48.766;8.674;2022-08-04T06:45:36;94124.00;;;29.00
10598;BMP180;5346;48.766;8.674;2022-08-04T06:48:15;94125.00;;;29.20
10598;BMP180;5346;48.766;8.674;2022-08-04T06:50:46;94130.00;;;29.30
10598;BMP180;5346;48.766;8.674;2022-08-04T06:53:43;94129.00;;;29.50
10598;BMP180;5346;48.766;8.674;2022-08-04T06:56:11;94125.00;;;29.70
10598;BMP180;5346;48.766;8.674;2022-08-04T06:58:46;94129.00;;;29.90
10598;BMP180;5346;48.766;8.674;2022-08-04T07:01:18;94130.00;;;30.10
10598;BMP180;5346;48.766;8.674;2022-08-04T07:03:55;94132.00;;;30.30
10598;BMP180;5346;48.766;8.674;2022-08-04T07:06:23;94133.00;;;30.40
10598;BMP180;5346;48.766;8.674;2022-08-04T07:08:54;94123.00;;;30.50
10598;BMP180;5346;48.766;8.674;2022-08-04T07:11:30;94128.00;;;30.90
10598;BMP180;5346;48.766;8.674;2022-08-04T07:14:13;94126.00;;;31.10
10598;BMP180;5346;48.766;8.674;2022-08-04T07:16:49;94126.00;;;31.00
10598;BMP180;5346;48.766;8.674;2022-08-04T07:19:17;94127.00;;;31.00
10598;BMP180;5346;48.766;8.674;2022-08-04T07:22:07;94119.00;;;31.10
10598;BMP180;5346;48.766;8.674;2022-08-04T07:24:58;94130.00;;;31.30
10598;BMP180;5346;48.766;8.674;2022-08-04T07:27:39;94117.00;;;31.40
10598;BMP180;5346;48.766;8.674;2022-08-04T07:30:22;94117.00;;;31.50
10598;BMP180;5346;48.766;8.674;2022-08-04T07:32:58;94118.00;;;31.60
10598;BMP180;5346;48.766;8.674;2022-08-04T07:35:28;94118.00;;;31.70
10598;BMP180;5346;48.766;8.674;2022-08-04T07:38:15;94120.00;;;31.80
10598;BMP180;5346;48.766;8.674;2022-08-04T07:40:55;94116.00;;;32.00
10598;BMP180;5346;48.766;8.674;2022-08-04T07:43:23;94122.00;;;32.10
10598;BMP180;5346;48.766;8.674;2022-08-04T07:45:57;94125.00;;;32.20
10598;BMP180;5346;48.766;8.674;2022-08-04T07:48:25;94121.00;;;32.40
10598;BMP180;5346;48.766;8.674;2022-08-04T07:50:53;94128.00;;;32.40
10598;BMP180;5346;48.766;8.674;2022-08-04T07:53:32;94128.00;;;32.40
10598;BMP180;5346;48.766;8.674;2022-08-04T07:56:20;94131.00;;;32.60
10598;BMP180;5346;48.766;8.674;2022-08-04T07:58:55;94125.00;;;32.70
10598;BMP180;5346;48.766;8.674;2022-08-04T08:01:24;94126.00;;;32.70
10598;BMP180;5346;48.766;8.674;2022-08-04T08:03:54;94128.00;;;32.80
10598;BMP180;5346;48.766;8.674;2022-08-04T08:06:28;94129.00;;;32.90
10598;BMP180;5346;48.766;8.674;2022-08-04T08:09:12;94133.00;;;33.20
10598;BMP180;5346;48.766;8.674;2022-08-04T08:11:48;94134.00;;;33.30
10598;BMP180;5346;48.766;8.674;2022-08-04T08:14:45;94134.00;;;33.40
10598;BMP180;5346;48.766;8.674;2022-08-04T08:17:19;94124.00;;;33.50
10598;BMP180;5346;48.766;8.674;2022-08-04T08:19:54;94127.00;;;33.70
10598;BMP180;5346;48.766;8.674;2022-08-04T08:22:29;94127.00;;;33.70
10598;BMP180;5346;48.766;8.674;2022-08-04T08:24:58;94131.00;;;34.00
10598;BMP180;5346;48.766;8.674;2022-08-04T08:27:26;94125.00;;;34.10
10598;BMP180;5346;48.766;8.674;2022-08-04T08:30:00;94130.00;;;33.90
10598;BMP180;5346;48.766;8.674;2022-08-04T08:32:30;94129.00;;;34.00
10598;BMP180;5346;48.766;8.674;2022-08-04T08:34:58;94123.00;;;34.00
10598;BMP180;5346;48.766;8.674;2022-08-04T08:37:46;94130.00;;;33.90
10598;BMP180;5346;48.766;8.674;2022-08-04T08:40:47;94128.00;;;34.20
10598;BMP180;5346;48.766;8.674;2022-08-04T09:05:06;94142.00;;;35.20
10598;BMP180;5346;48.766;8.674;2022-08-04T09:10:11;94135.00;;;35.10
10598;BMP180;5346;48.766;8.674;2022-08-04T09:13:05;94135.00;;;34.80
10598;BMP180;5346;48.766;8.674;2022-08-04T09:15:44;94137.00;;;35.20
10598;BMP180;5346;48.766;8.674;2022-08-04T09:24:17;94150.00;;;34.50
10598;BMP180;5346;48.766;8.674;2022-08-04T09:27:19;94148.00;;;35.40
10598;BMP180;5346;48.766;8.674;2022-08-04T09:30:05;94139.00;;;36.00
10598;BMP180;5346;48.766;8.674;2022-08-04T09:32:57;94152.00;;;36.10
10598;BMP180;5346;48.766;8.674;2022-08-04T09:38:32;94157.00;;;35.40
10598;BMP180;5346;48.766;8.674;2022-08-04T09:44:27;94164.00;;;33.40
10598;BMP180;5346;48.766;8.674;2022-08-04T09:53:41;94169.00;;;32.60
10598;BMP180;5346;48.766;8.674;2022-08-04T09:57:05;94172.00;;;32.50
10598;BMP180;5346;48.766;8.674;2022-08-04T10:00:02;94178.00;;;32.30
10598;BMP180;5346;48.766;8.674;2022-08-04T10:02:44;94177.00;;;32.00
10598;BMP180;5346;48.766;8.674;2022-08-04T10:05:24;94179.00;;;31.70
10598;BMP180;5346;48.766;8.674;2022-08-04T10:08:28;94178.00;;;31.60
10598;BMP180;5346;48.766;8.674;2022-08-04T10:14:09;94163.00;;;32.40
10598;BMP180;5346;48.766;8.674;2022-08-04T10:23:41;94155.00;;;34.60
10598;BMP180;5346;48.766;8.674;2022-08-04T10:26:41;94136.00;;;34.90
10598;BMP180;5346;48.766;8.674;2022-08-04T10:29:44;94124.00;;;35.50
10598;BMP180;5346;48.766;8.674;2022-08-04T10:32:25;94133.00;;;35.50
10598;BMP180;5346;48.766;8.674;2022-08-04T10:35:10;94130.00;;;36.00
10598;BMP180;5346;48.766;8.674;2022-08-04T10:40:35;94120.00;;;37.30
10598;BMP180;5346;48.766;8.674;2022-08-04T10:43:50;94114.00;;;36.90
10598;BMP180;5346;48.766;8.674;2022-08-04T10:46:35;94114.00;;;37.30
10598;BMP180;5346;48.766;8.674;2022-08-04T10:49:12;94139.00;;;36.90
10598;BMP180;5346;48.766;8.674;2022-08-04T10:51:56;94128.00;;;35.80
10598;BMP180;5346;48.766;8.674;2022-08-04T10:57:33;94121.00;;;36.70
10598;BMP180;5346;48.766;8.674;2022-08-04T11:00:05;94114.00;;;37.70
10598;BMP180;5346;48.766;8.674;2022-08-04T11:05:48;94118.00;;;38.50
10598;BMP180;5346;48.766;8.674;2022-08-04T11:08:32;94144.00;;;37.20
10598;BMP180;5346;48.766;8.674;2022-08-04T11:16:37;94128.00;;;35.70
10598;BMP180;5346;48.766;8.674;2022-08-04T11:23:10;94148.00;;;35.90
10598;BMP180;5346;48.766;8.674;2022-08-04T11:26:08;94155.00;;;34.90
10598;BMP180;5346;48.766;8.674;2022-08-04T11:29:05;94147.00;;;34.20
10598;BMP180;5346;48.766;8.674;2022-08-04T11:31:47;94157.00;;;33.90
10598;BMP180;5346;48.766;8.674;2022-08-04T11:34:22;94141.00;;;33.90
10598;BMP180;5346;48.766;8.674;2022-08-04T11:39:44;94151.00;;;35.00
10598;BMP180;5346;48.766;8.674;2022-08-04T11:42:36;94127.00;;;35.00
10598;BMP180;5346;48.766;8.674;2022-08-04T11:45:17;94149.00;;;35.70
10598;BMP180;5346;48.766;8.674;2022-08-04T11:48:29;94152.00;;;36.30
10598;BMP180;5346;48.766;8.674;2022-08-04T11:50:59;94150.00;;;35.50
10598;BMP180;5346;48.766;8.674;2022-08-04T11:53:39;94150.00;;;35.20
10598;BMP180;5346;48.766;8.674;2022-08-04T11:56:11;94154.00;;;34.80
10598;BMP180;5346;48.766;8.674;2022-08-04T11:59:05;94134.00;;;35.40
10598;BMP180;5346;48.766;8.674;2022-08-04T12:05:01;94137.00;;;36.50
10598;BMP180;5346;48.766;8.674;2022-08-04T12:10:56;94148.00;;;33.70
10598;BMP180;5346;48.766;8.674;2022-08-04T12:16:47;94145.00;;;35.30
10598;BMP180;5346;48.766;8.674;2022-08-04T12:19:34;94133.00;;;35.20
10598;BMP180;5346;48.766;8.674;2022-08-04T12:22:38;94141.00;;;35.70
10598;BMP180;5346;48.766;8.674;2022-08-04T12:25:15;94137.00;;;36.00
10598;BMP180;5346;48.766;8.674;2022-08-04T12:28:07;94139.00;;;35.80
10598;BMP180;5346;48.766;8.674;2022-08-04T12:30:46;94130.00;;;34.80
10598;BMP180;5346;48.766;8.674;2022-08-04T12:39:17;94112.00;;;36.50
10598;BMP180;5346;48.766;8.674;2022-08-04T12:42:10;94116.00;;;36.50
10598;BMP180;5346;48.766;8.674;2022-08-04T12:44:50;94111.00;;;36.50
10598;BMP180;5346;48.766;8.674;2022-08-04T12:47:25;94109.00;;;36.60
10598;BMP180;5346;48.766;8.674;2022-08-04T12:50:03;94107.00;;;36.30
10598;BMP180;5346;48.766;8.674;2022-08-04T12:52:42;94109.00;;;36.80
10598;BMP180;5346;48.766;8.674;2022-08-04T12:55:34;94099.00;;;36.80
10598;BMP180;5346;48.766;8.674;2022-08-04T12:58:12;94113.00;;;36.60
10598;BMP180;5346;48.766;8.674;2022-08-04T13:01:20;94111.00;;;37.00
10598;BMP180;5346;48.766;8.674;2022-08-04T13:04:21;94105.00;;;37.00
10598;BMP180;5346;48.766;8.674;2022-08-04T13:07:02;94104.00;;;37.10
10598;BMP180;5346;48.766;8.674;2022-08-04T13:09:34;94105.00;;;37.30
10598;BMP180;5346;48.766;8.674;2022-08-04T13:12:16;94107.00;;;37.20
10598;BMP180;5346;48.766;8.674;2022-08-04T13:14:47;94108.00;;;37.40
10598;BMP180;5346;48.766;8.674;2022-08-04T13:17:58;94100.00;;;37.40
10598;BMP180;5346;48.766;8.674;2022-08-04T13:20:32;94104.00;;;37.30
10598;BMP180;5346;48.766;8.674;2022-08-04T13:23:15;94099.00;;;37.80
10598;BMP180;5346;48.766;8.674;2022-08-04T13:25:51;94094.00;;;38.00
10598;BMP180;5346;48.766;8.674;2022-08-04T13:28:49;94096.00;;;37.90
10598;BMP180;5346;48.766;8.674;2022-08-04T13:31:22;94090.00;;;38.00
10598;BMP180;5346;48.766;8.674;2022-08-04T13:34:08;94094.00;;;37.80
10598;BMP180;5346;48.766;8.674;2022-08-04T13:36:49;94087.00;;;37.30
10598;BMP180;5346;48.766;8.674;2022-08-04T13:39:29;94105.00;;;37.10
10598;BMP180;5346;48.766;8.674;2022-08-04T13:42:01;94104.00;;;36.10
10598;BMP180;5346;48.766;8.674;2022-08-04T13:44:37;94104.00;;;35.30
10598;BMP180;5346;48.766;8.674;2022-08-04T13:47:24;94100.00;;;34.50
10598;BMP180;5346;48.766;8.674;2022-08-04T13:50:19;94098.00;;;34.20
10598;BMP180;5346;48.766;8.674;2022-08-04T13:52:51;94107.00;;;33.70
10598;BMP180;5346;48.766;8.674;2022-08-04T13:55:36;94106.00;;;33.60
10598;BMP180;5346;48.766;8.674;2022-08-04T13:58:20;94090.00;;;33.70
10598;BMP180;5346;48.766;8.674;2022-08-04T14:01:10;94089.00;;;35.00
10598;BMP180;5346;48.766;8.674;2022-08-04T14:03:50;94099.00;;;34.60
10598;BMP180;5346;48.766;8.674;2022-08-04T14:06:35;94096.00;;;34.10
10598;BMP180;5346;48.766;8.674;2022-08-04T14:09:20;94091.00;;;33.90
10598;BMP180;5346;48.766;8.674;2022-08-04T14:12:09;94082.00;;;34.00
10598;BMP180;5346;48.766;8.674;2022-08-04T14:15:32;94073.00;;;34.60
10598;BMP180;5346;48.766;8.674;2022-08-04T14:18:30;94065.00;;;35.10
10598;BMP180;5346;48.766;8.674;2022-08-04T14:21:17;94073.00;;;35.60
10598;BMP180;5346;48.766;8.674;2022-08-04T14:23:54;94075.00;;;35.10
10598;BMP180;5346;48.766;8.674;2022-08-04T14:26:31;94089.00;;;34.40
10598;BMP180;5346;48.766;8.674;2022-08-04T14:29:19;94068.00;;;34.20
10598;BMP180;5346;48.766;8.674;2022-08-04T14:32:00;94067.00;;;34.90
10598;BMP180;5346;48.766;8.674;2022-08-04T14:34:43;94056.00;;;35.50
10598;BMP180;5346;48.766;8.674;2022-08-04T14:37:15;94067.00;;;35.40
10598;BMP180;5346;48.766;8.674;2022-08-04T14:39:52;94067.00;;;34.90
10598;BMP180;5346;48.766;8.674;2022-08-04T14:42:48;94067.00;;;34.10
10598;BMP180;5346;48.766;8.674;2022-08-04T14:45:31;94058.00;;;34.40
10598;BMP180;5346;48.766;8.674;2022-08-04T14:48:08;94054.00;;;34.70
10598;BMP180;5346;48.766;8.674;2022-08-04T14:50:48;94051.00;;;35.10
10598;BMP180;5346;48.766;8.674;2022-08-04T14:53:19;94051.00;;;35.40
10598;BMP180;5346;48.766;8.674;2022-08-04T14:55:57;94054.00;;;35.60
10598;BMP180;5346;48.766;8.674;2022-08-04T14:58:30;94048.00;;;35.70
10598;BMP180;5346;48.766;8.674;2022-08-04T15:01:10;94054.00;;;35.40
10598;BMP180;5346;48.766;8.674;2022-08-04T15:03:44;94060.00;;;34.40
10598;BMP180;5346;48.766;8.674;2022-08-04T15:06:22;94056.00;;;34.10
10598;BMP180;5346;48.766;8.674;2022-08-04T15:08:54;94052.00;;;34.20
10598;BMP180;5346;48.766;8.674;2022-08-04T15:11:29;94050.00;;;34.50
10598;BMP180;5346;48.766;8.674;2022-08-04T15:13:59;94050.00;;;34.80
10598;BMP180;5346;48.766;8.674;2022-08-04T15:16:31;94057.00;;;34.90
10598;BMP180;5346;48.766;8.674;2022-08-04T15:19:21;94053.00;;;34.90
10598;BMP180;5346;48.766;8.674;2022-08-04T15:22:00;94039.00;;;35.20
10598;BMP180;5346;48.766;8.674;2022-08-04T15:24:53;94048.00;;;35.20
10598;BMP180;5346;48.766;8.674;2022-08-04T15:27:27;94048.00;;;35.30
10598;BMP180;5346;48.766;8.674;2022-08-04T15:30:04;94043.00;;;35.30
10598;BMP180;5346;48.766;8.674;2022-08-04T15:32:38;94046.00;;;35.20
10598;BMP180;5346;48.766;8.674;2022-08-04T15:35:26;94042.00;;;35.10
10598;BMP180;5346;48.766;8.674;2022-08-04T15:38:31;94055.00;;;35.10
10598;BMP180;5346;48.766;8.674;2022-08-04T15:41:15;94054.00;;;34.90
10598;BMP180;5346;48.766;8.674;2022-08-04T15:44:20;94050.00;;;34.90
10598;BMP180;5346;48.766;8.674;2022-08-04T15:47:11;94045.00;;;34.90
10598;BMP180;5346;48.766;8.674;2022-08-04T15:49:41;94043.00;;;34.80
10598;BMP180;5346;48.766;8.674;2022-08-04T15:52:15;94036.00;;;34.90
10598;BMP180;5346;48.766;8.674;2022-08-04T15:54:45;94036.00;;;34.80
10598;BMP180;5346;48.766;8.674;2022-08-04T16:09:01;94026.00;;;34.40
10598;BMP180;5346;48.766;8.674;2022-08-04T16:11:35;94026.00;;;34.50
10598;BMP180;5346;48.766;8.674;2022-08-04T16:14:10;94023.00;;;34.40
10598;BMP180;5346;48.766;8.674;2022-08-04T16:16:47;94027.00;;;34.40
10598;BMP180;5346;48.766;8.674;2022-08-04T16:22:38;94022.00;;;34.10
10598;BMP180;5346;48.766;8.674;2022-08-04T16:25:09;94020.00;;;34.10
10598;BMP180;5346;48.766;8.674;2022-08-04T16:27:44;94024.00;;;34.10
10598;BMP180;5346;48.766;8.674;2022-08-04T16:30:13;94022.00;;;34.00
10598;BMP180;5346;48.766;8.674;2022-08-04T16:32:46;94015.00;;;33.90
10598;BMP180;5346;48.766;8.674;2022-08-04T16:35:26;94020.00;;;33.80
10598;BMP180;5346;48.766;8.674;2022-08-04T16:38:14;94014.00;;;33.50
10598;BMP180;5346;48.766;8.674;2022-08-04T16:40:57;94013.00;;;33.50
10598;BMP180;5346;48.766;8.674;2022-08-04T16:43:32;94008.00;;;33.50
10598;BMP180;5346;48.766;8.674;2022-08-04T16:46:07;94010.00;;;33.50
10598;BMP180;5346;48.766;8.674;2022-08-04T16:49:05;94015.00;;;33.40
10598;BMP180;5346;48.766;8.674;2022-08-04T16:51:39;94011.00;;;33.40
10598;BMP180;5346;48.766;8.674;2022-08-04T16:54:07;94005.00;;;33.20
10598;BMP180;5346;48.766;8.674;2022-08-04T16:56:35;94000.00;;;33.10
10598;BMP180;5346;48.766;8.674;2022-08-04T16:59:11;94007.00;;;33.00
10598;BMP180;5346;48.766;8.674;2022-08-04T17:01:51;94007.00;;;32.90
10598;BMP180;5346;48.766;8.674;2022-08-04T17:04:32;94007.00;;;32.90
10598;BMP180;5346;48.766;8.674;2022-08-04T17:07:03;94013.00;;;32.80
10598;BMP180;5346;48.766;8.674;2022-08-04T17:09:48;94008.00;;;32.70
10598;BMP180;5346;48.766;8.674;2022-08-04T17:12:17;94006.00;;;32.60
10598;BMP180;5346;48.766;8.674;2022-08-04T17:14:51;93998.00;;;32.50
10598;BMP180;5346;48.766;8.674;2022-08-04T17:17:22;94003.00;;;32.50
10598;BMP180;5346;48.766;8.674;2022-08-04T17:19:55;94008.00;;;32.50
10598;BMP180;5346;48.766;8.674;2022-08-04T17:22:29;94001.00;;;32.40
10598;BMP180;5346;48.766;8.674;2022-08-04T17:24:59;93999.00;;;32.40
10598;BMP180;5346;48.766;8.674;2022-08-04T17:27:26;94001.00;;;32.30
10598;BMP180;5346;48.766;8.674;2022-08-04T17:30:26;94005.00;;;32.10
10598;BMP180;5346;48.766;8.674;2022-08-04T17:32:54;94008.00;;;31.90
10598;BMP180;5346;48.766;8.674;2022-08-04T17:35:28;94009.00;;;31.70
10598;BMP180;5346;48.766;8.674;2022-08-04T17:38:05;94005.00;;;31.40
10598;BMP180;5346;48.766;8.674;2022-08-04T17:41:00;94007.00;;;31.30
10598;BMP180;5346;48.766;8.674;2022-08-04T17:44:00;94008.00;;;31.20
10598;BMP180;5346;48.766;8.674;2022-08-04T17:46:42;94005.00;;;31.00
10598;BMP180;5346;48.766;8.674;2022-08-04T17:52:00;94006.00;;;30.80
10598;BMP180;5346;48.766;8.674;2022-08-04T17:54:38;94006.00;;;30.60
10598;BMP180;5346;48.766;8.674;2022-08-04T17:57:18;94006.00;;;30.60
10598;BMP180;5346;48.766;8.674;2022-08-04T17:59:55;94004.00;;;30.90
10598;BMP180;5346;48.766;8.674;2022-08-04T18:02:31;94012.00;;;30.80
10598;BMP180;5346;48.766;8.674;2022-08-04T18:05:04;94007.00;;;30.70
10598;BMP180;5346;48.766;8.674;2022-08-04T18:07:41;94008.00;;;30.50
10598;BMP180;5346;48.766;8.674;2022-08-04T18:10:39;94010.00;;;30.40
10598;BMP180;5346;48.766;8.674;2022-08-04T18:13:26;94014.00;;;30.10
10598;BMP180;5346;48.766;8.674;2022-08-04T18:16:04;94017.00;;;29.80
10598;BMP180;5346;48.766;8.674;2022-08-04T18:19:11;94015.00;;;29.50
10598;BMP180;5346;48.766;8.674;2022-08-04T18:21:57;94025.00;;;29.30
10598;BMP180;5346;48.766;8.674;2022-08-04T18:24:42;94016.00;;;29.30
10598;BMP180;5346;48.766;8.674;2022-08-04T18:27:27;94022.00;;;29.10
10598;BMP180;5346;48.766;8.674;2022-08-04T18:30:02;94026.00;;;28.90
10598;BMP180;5346;48.766;8.674;2022-08-04T18:32:51;94023.00;;;28.80
10598;BMP180;5346;48.766;8.674;2022-08-04T18:35:48;94033.00;;;28.50
10598;BMP180;5346;48.766;8.674;2022-08-04T18:38:36;94031.00;;;28.20
10598;BMP180;5346;48.766;8.674;2022-08-04T18:41:25;94031.00;;;28.20
10598;BMP180;5346;48.766;8.674;2022-08-04T18:43:54;94031.00;;;28.10
10598;BMP180;5346;48.766;8.674;2022-08-04T18:46:29;94027.00;;;28.00
10598;BMP180;5346;48.766;8.674;2022-08-04T18:48:57;94027.00;;;27.70
10598;BMP180;5346;48.766;8.674;2022-08-04T18:51:26;94025.00;;;27.40
10598;BMP180;5346;48.766;8.674;2022-08-04T18:54:04;94029.00;;;27.30
10598;BMP180;5346;48.766;8.674;2022-08-04T18:56:39;94027.00;;;27.30
10598;BMP180;5346;48.766;8.674;2022-08-04T18:59:33;94036.00;;;27.20
10598;BMP180;5346;48.766;8.674;2022-08-04T19:02:01;94031.00;;;27.00
10598;BMP180;5346;48.766;8.674;2022-08-04T19:04:43;94035.00;;;26.90
10598;BMP180;5346;48.766;8.674;2022-08-04T19:07:16;94032.00;;;26.80
10598;BMP180;5346;48.766;8.674;2022-08-04T19:10:10;94046.00;;;26.70
10598;BMP180;5346;48.766;8.674;2022-08-04T19:12:53;94039.00;;;26.60
10598;BMP180;5346;48.766;8.674;2022-08-04T19:15:27;94045.00;;;26.60
10598;BMP180;5346;48.766;8.674;2022-08-04T19:18:01;94041.00;;;26.60
10598;BMP180;5346;48.766;8.674;2022-08-04T19:20:43;94036.00;;;26.60
10598;BMP180;5346;48.766;8.674;2022-08-04T19:23:31;94046.00;;;26.50
10598;BMP180;5346;48.766;8.674;2022-08-04T19:26:26;94039.00;;;26.50
10598;BMP180;5346;48.766;8.674;2022-08-04T19:28:54;94046.00;;;26.60
10598;BMP180;5346;48.766;8.674;2022-08-04T19:31:29;94046.00;;;26.60
10598;BMP180;5346;48.766;8.674;2022-08-04T19:34:17;94041.00;;;26.60
10598;BMP180;5346;48.766;8.674;2022-08-04T19:37:01;94048.00;;;26.40